sensor_id;sensor_type;location;lat;lon;timestamp;P1;durP1;ratioP1;P2;durP2;ratioP2
66919;SDS011;53831;52.090;17.026;2022-12-18T00:01:00;61.40;;;19.17;;
66919;SDS011;53831;52.090;17.026;2022-12-18T00:02:06;55.75;;;15.95;;
66919;SDS011;53831;52.090;17.026;2022-12-18T00:03:07;65.50;;;16.58;;
66919;SDS011;53831;52.090;17.026;2022-12-18T00:04:11;65.45;;;18.27;;
66919;SDS011;53831;52.090;17.026;2022-12-18T00:05:19;98.85;;;25.70;;
66919;SDS011;53831;52.090;17.026;2022-12-18T00:07:22;75.38;;;20.50;;
66919;SDS011;53831;52.090;17.026;2022-12-18T00:08:22;97.95;;;25.48;;
66919;SDS011;53831;52.090;17.026;2022-12-18T00:09:23;77.97;;;21.80;;
66919;SDS011;53831;52.090;17.026;2022-12-18T00:10:24;69.03;;;18.17;;
66919;SDS011;53831;52.090;17.026;2022-12-18T00:11:26;69.68;;;20.40;;
66919;SDS011;53831;52.090;17.026;2022-12-18T00:12:28;79.32;;;20.75;;
66919;SDS011;53831;52.090;17.026;2022-12-18T00:13:29;71.60;;;21.38;;
66919;SDS011;53831;52.090;17.026;2022-12-18T00:14:29;87.05;;;25.40;;
66919;SDS011;53831;52.090;17.026;2022-12-18T00:15:30;62.20;;;17.88;;
66919;SDS011;53831;52.090;17.026;2022-12-18T00:16:33;80.32;;;21.20;;
66919;SDS011;53831;52.090;17.026;2022-12-18T00:17:35;78.18;;;21.67;;
66919;SDS011;53831;52.090;17.026;2022-12-18T00:18:36;78.20;;;19.15;;
66919;SDS011;53831;52.090;17.026;2022-12-18T00:20:38;63.07;;;17.90;;
66919;SDS011;53831;52.090;17.026;2022-12-18T00:21:40;65.47;;;17.42;;
66919;SDS011;53831;52.090;17.026;2022-12-18T00:22:41;60.83;;;17.10;;
66919;SDS011;53831;52.090;17.026;2022-12-18T00:23:42;82.05;;;20.70;;
66919;SDS011;53831;52.090;17.026;2022-12-18T00:24:43;74.57;;;21.45;;
66919;SDS011;53831;52.090;17.026;2022-12-18T00:25:44;81.35;;;20.10;;
66919;SDS011;53831;52.090;17.026;2022-12-18T00:26:45;72.80;;;23.42;;
66919;SDS011;53831;52.090;17.026;2022-12-18T00:27:45;76.82;;;20.85;;
66919;SDS011;53831;52.090;17.026;2022-12-18T00:28:48;74.03;;;21.52;;
66919;SDS011;53831;52.090;17.026;2022-12-18T00:30:49;67.67;;;18.77;;
66919;SDS011;53831;52.090;17.026;2022-12-18T00:31:51;54.30;;;16.05;;
66919;SDS011;53831;52.090;17.026;2022-12-18T00:32:52;64.22;;;18.45;;
66919;SDS011;53831;52.090;17.026;2022-12-18T00:33:55;67.47;;;17.58;;
66919;SDS011;53831;52.090;17.026;2022-12-18T00:34:57;56.88;;;14.77;;
66919;SDS011;53831;52.090;17.026;2022-12-18T00:36:01;55.47;;;17.25;;
66919;SDS011;53831;52.090;17.026;2022-12-18T00:37:06;69.47;;;18.13;;
66919;SDS011;53831;52.090;17.026;2022-12-18T00:38:06;60.78;;;17.80;;
66919;SDS011;53831;52.090;17.026;2022-12-18T00:39:07;63.80;;;16.45;;
66919;SDS011;53831;52.090;17.026;2022-12-18T00:40:09;67.63;;;19.40;;
66919;SDS011;53831;52.090;17.026;2022-12-18T00:41:11;74.30;;;19.75;;
66919;SDS011;53831;52.090;17.026;2022-12-18T00:42:13;53.95;;;13.43;;
66919;SDS011;53831;52.090;17.026;2022-12-18T00:43:36;60.88;;;16.00;;
66919;SDS011;53831;52.090;17.026;2022-12-18T00:44:37;60.60;;;18.20;;
66919;SDS011;53831;52.090;17.026;2022-12-18T00:45:37;72.20;;;18.67;;
66919;SDS011;53831;52.090;17.026;2022-12-18T00:46:38;73.95;;;18.02;;
66919;SDS011;53831;52.090;17.026;2022-12-18T00:48:40;79.00;;;18.60;;
66919;SDS011;53831;52.090;17.026;2022-12-18T00:49:40;68.32;;;18.27;;
66919;SDS011;53831;52.090;17.026;2022-12-18T00:50:41;90.07;;;25.00;;
66919;SDS011;53831;52.090;17.026;2022-12-18T00:51:42;81.53;;;22.95;;
66919;SDS011;53831;52.090;17.026;2022-12-18T00:52:42;88.00;;;22.63;;
66919;SDS011;53831;52.090;17.026;2022-12-18T00:53:43;75.20;;;20.08;;
66919;SDS011;53831;52.090;17.026;2022-12-18T00:54:44;75.18;;;20.77;;
66919;SDS011;53831;52.090;17.026;2022-12-18T00:55:44;73.85;;;20.38;;
66919;SDS011;53831;52.090;17.026;2022-12-18T00:57:46;69.37;;;18.57;;
66919;SDS011;53831;52.090;17.026;2022-12-18T00:58:47;70.63;;;17.63;;
66919;SDS011;53831;52.090;17.026;2022-12-18T00:59:48;64.13;;;16.30;;
66919;SDS011;53831;52.090;17.026;2022-12-18T01:00:48;69.00;;;18.88;;
66919;SDS011;53831;52.090;17.026;2022-12-18T01:01:49;71.40;;;19.33;;
66919;SDS011;53831;52.090;17.026;2022-12-18T01:02:49;84.55;;;22.63;;
66919;SDS011;53831;52.090;17.026;2022-12-18T01:03:50;105.25;;;27.75;;
66919;SDS011;53831;52.090;17.026;2022-12-18T01:04:51;79.78;;;21.95;;
66919;SDS011;53831;52.090;17.026;2022-12-18T01:05:53;76.00;;;21.42;;
66919;SDS011;53831;52.090;17.026;2022-12-18T01:06:54;72.63;;;19.95;;
66919;SDS011;53831;52.090;17.026;2022-12-18T01:07:55;72.15;;;18.15;;
66919;SDS011;53831;52.090;17.026;2022-12-18T01:08:56;71.05;;;19.27;;
66919;SDS011;53831;52.090;17.026;2022-12-18T01:09:56;68.47;;;20.38;;
66919;SDS011;53831;52.090;17.026;2022-12-18T01:10:57;77.72;;;20.75;;
66919;SDS011;53831;52.090;17.026;2022-12-18T01:11:59;77.55;;;19.35;;
66919;SDS011;53831;52.090;17.026;2022-12-18T01:12:59;73.90;;;21.58;;
66919;SDS011;53831;52.090;17.026;2022-12-18T01:14:00;76.53;;;21.10;;
66919;SDS011;53831;52.090;17.026;2022-12-18T01:15:01;65.97;;;17.27;;
66919;SDS011;53831;52.090;17.026;2022-12-18T01:17:03;64.83;;;18.03;;
66919;SDS011;53831;52.090;17.026;2022-12-18T01:18:06;68.80;;;18.73;;
66919;SDS011;53831;52.090;17.026;2022-12-18T01:19:07;64.22;;;17.67;;
66919;SDS011;53831;52.090;17.026;2022-12-18T01:20:08;76.00;;;19.52;;
66919;SDS011;53831;52.090;17.026;2022-12-18T01:21:13;70.00;;;18.55;;
66919;SDS011;53831;52.090;17.026;2022-12-18T01:22:15;75.10;;;19.65;;
66919;SDS011;53831;52.090;17.026;2022-12-18T01:23:18;74.18;;;20.90;;
66919;SDS011;53831;52.090;17.026;2022-12-18T01:24:19;80.40;;;21.40;;
66919;SDS011;53831;52.090;17.026;2022-12-18T01:25:19;72.10;;;17.88;;
66919;SDS011;53831;52.090;17.026;2022-12-18T01:26:20;77.00;;;21.83;;
66919;SDS011;53831;52.090;17.026;2022-12-18T01:27:21;75.70;;;22.92;;
66919;SDS011;53831;52.090;17.026;2022-12-18T01:28:22;73.05;;;21.50;;
66919;SDS011;53831;52.090;17.026;2022-12-18T01:29:22;67.65;;;18.55;;
66919;SDS011;53831;52.090;17.026;2022-12-18T01:30:23;81.70;;;21.88;;
66919;SDS011;53831;52.090;17.026;2022-12-18T01:31:27;72.57;;;20.70;;
66919;SDS011;53831;52.090;17.026;2022-12-18T01:32:30;63.85;;;17.60;;
66919;SDS011;53831;52.090;17.026;2022-12-18T01:33:31;71.60;;;18.05;;
66919;SDS011;53831;52.090;17.026;2022-12-18T01:34:31;59.90;;;15.98;;
66919;SDS011;53831;52.090;17.026;2022-12-18T01:35:32;65.55;;;20.33;;
66919;SDS011;53831;52.090;17.026;2022-12-18T01:36:42;75.00;;;19.42;;
66919;SDS011;53831;52.090;17.026;2022-12-18T01:37:43;55.95;;;15.23;;
66919;SDS011;53831;52.090;17.026;2022-12-18T01:38:44;78.00;;;19.05;;
66919;SDS011;53831;52.090;17.026;2022-12-18T01:40:47;56.53;;;16.52;;
66919;SDS011;53831;52.090;17.026;2022-12-18T01:41:47;57.78;;;16.10;;
66919;SDS011;53831;52.090;17.026;2022-12-18T01:43:03;78.38;;;18.80;;
66919;SDS011;53831;52.090;17.026;2022-12-18T01:44:46;80.60;;;19.75;;
66919;SDS011;53831;52.090;17.026;2022-12-18T01:45:43;73.68;;;18.75;;
66919;SDS011;53831;52.090;17.026;2022-12-18T01:46:44;74.13;;;20.63;;
66919;SDS011;53831;52.090;17.026;2022-12-18T01:47:46;80.40;;;20.20;;
66919;SDS011;53831;52.090;17.026;2022-12-18T01:48:58;68.95;;;20.15;;
66919;SDS011;53831;52.090;17.026;2022-12-18T01:50:11;79.10;;;19.77;;
66919;SDS011;53831;52.090;17.026;2022-12-18T01:51:17;74.65;;;21.13;;
66919;SDS011;53831;52.090;17.026;2022-12-18T01:52:18;91.88;;;23.02;;
66919;SDS011;53831;52.090;17.026;2022-12-18T01:53:21;85.57;;;23.73;;
66919;SDS011;53831;52.090;17.026;2022-12-18T01:54:23;77.38;;;22.10;;
66919;SDS011;53831;52.090;17.026;2022-12-18T01:55:25;91.07;;;22.38;;
66919;SDS011;53831;52.090;17.026;2022-12-18T01:56:36;84.90;;;23.70;;
66919;SDS011;53831;52.090;17.026;2022-12-18T01:57:37;72.80;;;20.45;;
66919;SDS011;53831;52.090;17.026;2022-12-18T01:58:40;78.32;;;22.23;;
66919;SDS011;53831;52.090;17.026;2022-12-18T01:59:41;78.35;;;21.50;;
66919;SDS011;53831;52.090;17.026;2022-12-18T02:00:44;82.88;;;22.08;;
66919;SDS011;53831;52.090;17.026;2022-12-18T02:02:46;76.07;;;19.40;;
66919;SDS011;53831;52.090;17.026;2022-12-18T02:03:47;86.00;;;22.38;;
66919;SDS011;53831;52.090;17.026;2022-12-18T02:04:49;74.57;;;20.42;;
66919;SDS011;53831;52.090;17.026;2022-12-18T02:05:55;83.22;;;22.88;;
66919;SDS011;53831;52.090;17.026;2022-12-18T02:08:48;79.30;;;20.80;;
66919;SDS011;53831;52.090;17.026;2022-12-18T02:11:05;80.93;;;21.25;;
66919;SDS011;53831;52.090;17.026;2022-12-18T02:12:19;82.43;;;23.05;;
66919;SDS011;53831;52.090;17.026;2022-12-18T02:14:38;80.90;;;22.20;;
66919;SDS011;53831;52.090;17.026;2022-12-18T02:17:37;64.18;;;18.17;;
66919;SDS011;53831;52.090;17.026;2022-12-18T02:18:58;77.13;;;19.92;;
66919;SDS011;53831;52.090;17.026;2022-12-18T02:23:47;82.55;;;21.65;;
66919;SDS011;53831;52.090;17.026;2022-12-18T02:27:44;77.90;;;20.08;;
66919;SDS011;53831;52.090;17.026;2022-12-18T02:28:49;79.13;;;21.92;;
66919;SDS011;53831;52.090;17.026;2022-12-18T02:30:05;76.65;;;21.75;;
66919;SDS011;53831;52.090;17.026;2022-12-18T02:31:07;77.60;;;22.08;;
66919;SDS011;53831;52.090;17.026;2022-12-18T02:32:17;85.22;;;22.98;;
66919;SDS011;53831;52.090;17.026;2022-12-18T02:33:26;80.70;;;22.02;;
66919;SDS011;53831;52.090;17.026;2022-12-18T02:34:31;70.38;;;19.70;;
66919;SDS011;53831;52.090;17.026;2022-12-18T02:35:34;74.43;;;21.83;;
66919;SDS011;53831;52.090;17.026;2022-12-18T02:36:36;84.60;;;21.85;;
66919;SDS011;53831;52.090;17.026;2022-12-18T02:37:41;82.85;;;21.52;;
66919;SDS011;53831;52.090;17.026;2022-12-18T02:38:44;80.00;;;22.88;;
66919;SDS011;53831;52.090;17.026;2022-12-18T02:39:49;79.80;;;22.05;;
66919;SDS011;53831;52.090;17.026;2022-12-18T02:40:51;78.15;;;20.90;;
66919;SDS011;53831;52.090;17.026;2022-12-18T02:41:54;82.10;;;22.15;;
66919;SDS011;53831;52.090;17.026;2022-12-18T02:43:07;76.82;;;20.58;;
66919;SDS011;53831;52.090;17.026;2022-12-18T02:44:13;68.88;;;20.58;;
66919;SDS011;53831;52.090;17.026;2022-12-18T02:45:15;69.90;;;19.95;;
66919;SDS011;53831;52.090;17.026;2022-12-18T02:47:32;60.38;;;15.82;;
66919;SDS011;53831;52.090;17.026;2022-12-18T02:48:37;67.40;;;20.25;;
66919;SDS011;53831;52.090;17.026;2022-12-18T02:51:06;66.90;;;17.63;;
66919;SDS011;53831;52.090;17.026;2022-12-18T02:52:34;60.42;;;16.73;;
66919;SDS011;53831;52.090;17.026;2022-12-18T02:53:44;50.45;;;14.88;;
66919;SDS011;53831;52.090;17.026;2022-12-18T02:54:54;69.60;;;17.05;;
66919;SDS011;53831;52.090;17.026;2022-12-18T02:56:11;73.53;;;19.80;;
66919;SDS011;53831;52.090;17.026;2022-12-18T02:57:33;79.75;;;20.95;;
66919;SDS011;53831;52.090;17.026;2022-12-18T02:58:41;78.60;;;20.38;;
66919;SDS011;53831;52.090;17.026;2022-12-18T03:00:16;72.85;;;18.98;;
66919;SDS011;53831;52.090;17.026;2022-12-18T03:03:59;84.75;;;23.02;;
66919;SDS011;53831;52.090;17.026;2022-12-18T03:06:08;85.15;;;23.33;;
66919;SDS011;53831;52.090;17.026;2022-12-18T03:07:21;80.80;;;22.60;;
66919;SDS011;53831;52.090;17.026;2022-12-18T03:08:29;82.70;;;22.40;;
66919;SDS011;53831;52.090;17.026;2022-12-18T03:09:36;84.05;;;23.13;;
66919;SDS011;53831;52.090;17.026;2022-12-18T03:10:43;92.30;;;23.60;;
66919;SDS011;53831;52.090;17.026;2022-12-18T03:11:51;90.60;;;25.08;;
66919;SDS011;53831;52.090;17.026;2022-12-18T03:13:21;89.55;;;24.55;;
66919;SDS011;53831;52.090;17.026;2022-12-18T03:14:32;90.82;;;25.25;;
66919;SDS011;53831;52.090;17.026;2022-12-18T03:15:38;88.63;;;22.15;;
66919;SDS011;53831;52.090;17.026;2022-12-18T03:16:52;86.63;;;22.83;;
66919;SDS011;53831;52.090;17.026;2022-12-18T03:17:59;92.20;;;23.83;;
66919;SDS011;53831;52.090;17.026;2022-12-18T03:19:06;94.30;;;24.90;;
66919;SDS011;53831;52.090;17.026;2022-12-18T03:20:17;87.43;;;22.15;;
66919;SDS011;53831;52.090;17.026;2022-12-18T03:21:23;95.38;;;24.88;;
66919;SDS011;53831;52.090;17.026;2022-12-18T03:22:29;101.25;;;24.58;;
66919;SDS011;53831;52.090;17.026;2022-12-18T03:23:33;92.07;;;22.92;;
66919;SDS011;53831;52.090;17.026;2022-12-18T03:24:37;82.38;;;22.60;;
66919;SDS011;53831;52.090;17.026;2022-12-18T03:25:40;93.43;;;24.35;;
66919;SDS011;53831;52.090;17.026;2022-12-18T03:26:44;94.25;;;24.92;;
66919;SDS011;53831;52.090;17.026;2022-12-18T03:27:50;82.20;;;20.85;;
66919;SDS011;53831;52.090;17.026;2022-12-18T03:28:59;83.82;;;20.58;;
66919;SDS011;53831;52.090;17.026;2022-12-18T03:30:06;80.47;;;21.38;;
66919;SDS011;53831;52.090;17.026;2022-12-18T03:31:12;84.53;;;21.67;;
66919;SDS011;53831;52.090;17.026;2022-12-18T03:32:20;97.57;;;23.88;;
66919;SDS011;53831;52.090;17.026;2022-12-18T03:33:29;87.88;;;22.75;;
66919;SDS011;53831;52.090;17.026;2022-12-18T03:34:38;90.57;;;22.67;;
66919;SDS011;53831;52.090;17.026;2022-12-18T03:35:46;79.53;;;19.80;;
66919;SDS011;53831;52.090;17.026;2022-12-18T03:36:47;88.18;;;21.23;;
66919;SDS011;53831;52.090;17.026;2022-12-18T03:37:48;97.57;;;24.42;;
66919;SDS011;53831;52.090;17.026;2022-12-18T03:41:11;76.53;;;20.13;;
66919;SDS011;53831;52.090;17.026;2022-12-18T03:42:48;70.18;;;15.82;;
66919;SDS011;53831;52.090;17.026;2022-12-18T03:45:17;85.38;;;20.33;;
66919;SDS011;53831;52.090;17.026;2022-12-18T03:49:01;63.78;;;16.10;;
66919;SDS011;53831;52.090;17.026;2022-12-18T03:50:14;72.18;;;19.52;;
66919;SDS011;53831;52.090;17.026;2022-12-18T03:51:28;80.22;;;19.95;;
66919;SDS011;53831;52.090;17.026;2022-12-18T03:52:38;85.15;;;21.05;;
66919;SDS011;53831;52.090;17.026;2022-12-18T03:54:13;74.65;;;18.08;;
66919;SDS011;53831;52.090;17.026;2022-12-18T03:55:22;79.88;;;20.30;;
66919;SDS011;53831;52.090;17.026;2022-12-18T03:56:33;77.82;;;19.15;;
66919;SDS011;53831;52.090;17.026;2022-12-18T03:57:44;79.82;;;20.15;;
66919;SDS011;53831;52.090;17.026;2022-12-18T03:58:47;68.68;;;18.05;;
66919;SDS011;53831;52.090;17.026;2022-12-18T03:59:53;67.63;;;17.38;;
66919;SDS011;53831;52.090;17.026;2022-12-18T04:01:01;92.82;;;21.83;;
66919;SDS011;53831;52.090;17.026;2022-12-18T04:02:04;85.32;;;18.95;;
66919;SDS011;53831;52.090;17.026;2022-12-18T04:03:08;73.43;;;17.95;;
66919;SDS011;53831;52.090;17.026;2022-12-18T04:04:16;76.93;;;19.35;;
66919;SDS011;53831;52.090;17.026;2022-12-18T04:05:19;82.72;;;21.38;;
66919;SDS011;53831;52.090;17.026;2022-12-18T04:06:21;82.07;;;21.08;;
66919;SDS011;53831;52.090;17.026;2022-12-18T04:07:22;80.57;;;21.77;;
66919;SDS011;53831;52.090;17.026;2022-12-18T04:08:24;86.53;;;21.70;;
66919;SDS011;53831;52.090;17.026;2022-12-18T04:09:38;85.55;;;21.52;;
66919;SDS011;53831;52.090;17.026;2022-12-18T04:10:39;82.03;;;21.25;;
66919;SDS011;53831;52.090;17.026;2022-12-18T04:11:41;80.15;;;19.65;;
66919;SDS011;53831;52.090;17.026;2022-12-18T04:12:44;89.18;;;20.58;;
66919;SDS011;53831;52.090;17.026;2022-12-18T04:13:47;82.80;;;19.60;;
66919;SDS011;53831;52.090;17.026;2022-12-18T04:14:55;89.22;;;21.38;;
66919;SDS011;53831;52.090;17.026;2022-12-18T04:15:56;88.57;;;22.38;;
66919;SDS011;53831;52.090;17.026;2022-12-18T04:16:57;94.05;;;21.67;;
66919;SDS011;53831;52.090;17.026;2022-12-18T04:18:03;84.38;;;21.65;;
66919;SDS011;53831;52.090;17.026;2022-12-18T04:19:11;84.95;;;20.10;;
66919;SDS011;53831;52.090;17.026;2022-12-18T04:20:15;79.18;;;20.17;;
66919;SDS011;53831;52.090;17.026;2022-12-18T04:21:18;72.43;;;18.52;;
66919;SDS011;53831;52.090;17.026;2022-12-18T04:22:20;86.28;;;18.67;;
66919;SDS011;53831;52.090;17.026;2022-12-18T04:23:25;77.18;;;19.05;;
66919;SDS011;53831;52.090;17.026;2022-12-18T04:24:30;89.78;;;21.25;;
66919;SDS011;53831;52.090;17.026;2022-12-18T04:25:43;86.85;;;21.40;;
66919;SDS011;53831;52.090;17.026;2022-12-18T04:26:49;78.22;;;22.08;;
66919;SDS011;53831;52.090;17.026;2022-12-18T04:27:52;79.05;;;20.38;;
66919;SDS011;53831;52.090;17.026;2022-12-18T04:28:52;97.95;;;22.55;;
66919;SDS011;53831;52.090;17.026;2022-12-18T04:29:53;88.60;;;21.27;;
66919;SDS011;53831;52.090;17.026;2022-12-18T04:30:54;91.70;;;22.45;;
66919;SDS011;53831;52.090;17.026;2022-12-18T04:31:56;83.90;;;20.58;;
66919;SDS011;53831;52.090;17.026;2022-12-18T04:32:57;88.38;;;22.80;;
66919;SDS011;53831;52.090;17.026;2022-12-18T04:33:58;91.68;;;21.30;;
66919;SDS011;53831;52.090;17.026;2022-12-18T04:34:59;102.85;;;25.17;;
66919;SDS011;53831;52.090;17.026;2022-12-18T04:35:59;97.50;;;24.08;;
66919;SDS011;53831;52.090;17.026;2022-12-18T04:37:00;106.43;;;23.63;;
66919;SDS011;53831;52.090;17.026;2022-12-18T04:38:01;94.45;;;22.08;;
66919;SDS011;53831;52.090;17.026;2022-12-18T04:39:01;98.90;;;23.10;;
66919;SDS011;53831;52.090;17.026;2022-12-18T04:40:02;95.03;;;22.13;;
66919;SDS011;53831;52.090;17.026;2022-12-18T04:41:14;91.38;;;22.52;;
66919;SDS011;53831;52.090;17.026;2022-12-18T04:42:16;95.90;;;23.20;;
66919;SDS011;53831;52.090;17.026;2022-12-18T04:43:17;99.45;;;23.83;;
66919;SDS011;53831;52.090;17.026;2022-12-18T04:44:17;94.75;;;23.00;;
66919;SDS011;53831;52.090;17.026;2022-12-18T04:45:18;89.38;;;22.58;;
66919;SDS011;53831;52.090;17.026;2022-12-18T04:46:19;91.85;;;21.55;;
66919;SDS011;53831;52.090;17.026;2022-12-18T04:47:19;93.38;;;21.52;;
66919;SDS011;53831;52.090;17.026;2022-12-18T04:48:20;85.55;;;23.60;;
66919;SDS011;53831;52.090;17.026;2022-12-18T04:49:21;84.28;;;20.90;;
66919;SDS011;53831;52.090;17.026;2022-12-18T04:50:21;76.70;;;20.13;;
66919;SDS011;53831;52.090;17.026;2022-12-18T04:51:22;93.82;;;22.63;;
66919;SDS011;53831;52.090;17.026;2022-12-18T04:52:23;85.20;;;20.58;;
66919;SDS011;53831;52.090;17.026;2022-12-18T04:53:23;87.50;;;21.80;;
66919;SDS011;53831;52.090;17.026;2022-12-18T04:54:24;78.88;;;21.17;;
66919;SDS011;53831;52.090;17.026;2022-12-18T04:56:26;76.80;;;19.43;;
66919;SDS011;53831;52.090;17.026;2022-12-18T04:57:26;78.28;;;19.42;;
66919;SDS011;53831;52.090;17.026;2022-12-18T04:58:27;81.55;;;19.33;;
66919;SDS011;53831;52.090;17.026;2022-12-18T04:59:27;89.32;;;20.85;;
66919;SDS011;53831;52.090;17.026;2022-12-18T05:00:28;85.00;;;21.20;;
66919;SDS011;53831;52.090;17.026;2022-12-18T05:01:29;78.18;;;18.48;;
66919;SDS011;53831;52.090;17.026;2022-12-18T05:02:29;90.18;;;21.10;;
66919;SDS011;53831;52.090;17.026;2022-12-18T05:03:30;80.28;;;18.95;;
66919;SDS011;53831;52.090;17.026;2022-12-18T05:05:33;68.67;;;16.80;;
66919;SDS011;53831;52.090;17.026;2022-12-18T05:06:34;75.95;;;19.73;;
66919;SDS011;53831;52.090;17.026;2022-12-18T05:07:35;87.45;;;21.92;;
66919;SDS011;53831;52.090;17.026;2022-12-18T05:08:36;91.43;;;21.35;;
66919;SDS011;53831;52.090;17.026;2022-12-18T05:09:36;76.55;;;20.73;;
66919;SDS011;53831;52.090;17.026;2022-12-18T05:10:37;87.65;;;21.92;;
66919;SDS011;53831;52.090;17.026;2022-12-18T05:11:38;94.75;;;21.40;;
66919;SDS011;53831;52.090;17.026;2022-12-18T05:12:38;80.97;;;20.83;;
66919;SDS011;53831;52.090;17.026;2022-12-18T05:13:57;93.20;;;21.25;;
66919;SDS011;53831;52.090;17.026;2022-12-18T05:14:58;86.68;;;21.60;;
66919;SDS011;53831;52.090;17.026;2022-12-18T05:15:59;99.85;;;21.85;;
66919;SDS011;53831;52.090;17.026;2022-12-18T05:17:00;96.18;;;21.77;;
66919;SDS011;53831;52.090;17.026;2022-12-18T05:18:00;108.53;;;24.52;;
66919;SDS011;53831;52.090;17.026;2022-12-18T05:19:01;90.30;;;21.42;;
66919;SDS011;53831;52.090;17.026;2022-12-18T05:20:02;95.53;;;22.55;;
66919;SDS011;53831;52.090;17.026;2022-12-18T05:21:03;105.43;;;24.60;;
66919;SDS011;53831;52.090;17.026;2022-12-18T05:22:04;105.53;;;24.15;;
66919;SDS011;53831;52.090;17.026;2022-12-18T05:23:08;104.15;;;24.92;;
66919;SDS011;53831;52.090;17.026;2022-12-18T05:24:08;96.70;;;24.20;;
66919;SDS011;53831;52.090;17.026;2022-12-18T05:25:09;100.88;;;26.05;;
66919;SDS011;53831;52.090;17.026;2022-12-18T05:26:10;105.45;;;24.52;;
66919;SDS011;53831;52.090;17.026;2022-12-18T05:27:16;110.50;;;23.67;;
66919;SDS011;53831;52.090;17.026;2022-12-18T05:28:17;99.53;;;25.92;;
66919;SDS011;53831;52.090;17.026;2022-12-18T05:29:18;91.38;;;24.92;;
66919;SDS011;53831;52.090;17.026;2022-12-18T05:30:19;94.35;;;23.65;;
66919;SDS011;53831;52.090;17.026;2022-12-18T05:31:20;95.65;;;25.30;;
66919;SDS011;53831;52.090;17.026;2022-12-18T05:32:20;96.78;;;26.25;;
66919;SDS011;53831;52.090;17.026;2022-12-18T05:33:21;91.70;;;24.20;;
66919;SDS011;53831;52.090;17.026;2022-12-18T05:34:23;92.38;;;22.55;;
66919;SDS011;53831;52.090;17.026;2022-12-18T05:35:24;89.53;;;23.63;;
66919;SDS011;53831;52.090;17.026;2022-12-18T05:36:25;76.75;;;19.58;;
66919;SDS011;53831;52.090;17.026;2022-12-18T05:37:25;96.22;;;24.52;;
66919;SDS011;53831;52.090;17.026;2022-12-18T05:38:27;92.93;;;22.17;;
66919;SDS011;53831;52.090;17.026;2022-12-18T05:39:28;86.15;;;20.50;;
66919;SDS011;53831;52.090;17.026;2022-12-18T05:40:29;86.22;;;20.58;;
66919;SDS011;53831;52.090;17.026;2022-12-18T05:41:30;92.38;;;20.52;;
66919;SDS011;53831;52.090;17.026;2022-12-18T05:42:30;96.97;;;20.45;;
66919;SDS011;53831;52.090;17.026;2022-12-18T05:43:31;82.75;;;22.27;;
66919;SDS011;53831;52.090;17.026;2022-12-18T05:44:34;82.50;;;21.55;;
66919;SDS011;53831;52.090;17.026;2022-12-18T05:45:38;92.45;;;21.67;;
66919;SDS011;53831;52.090;17.026;2022-12-18T05:46:39;97.25;;;23.48;;
66919;SDS011;53831;52.090;17.026;2022-12-18T05:47:42;76.03;;;18.88;;
66919;SDS011;53831;52.090;17.026;2022-12-18T05:48:44;88.05;;;22.08;;
66919;SDS011;53831;52.090;17.026;2022-12-18T05:49:45;90.03;;;21.40;;
66919;SDS011;53831;52.090;17.026;2022-12-18T05:50:46;90.00;;;22.20;;
66919;SDS011;53831;52.090;17.026;2022-12-18T05:51:48;83.03;;;20.35;;
66919;SDS011;53831;52.090;17.026;2022-12-18T05:52:48;73.65;;;18.42;;
66919;SDS011;53831;52.090;17.026;2022-12-18T05:53:49;77.68;;;19.55;;
66919;SDS011;53831;52.090;17.026;2022-12-18T05:54:49;92.40;;;22.33;;
66919;SDS011;53831;52.090;17.026;2022-12-18T05:55:50;93.95;;;22.80;;
66919;SDS011;53831;52.090;17.026;2022-12-18T05:56:51;79.55;;;20.33;;
66919;SDS011;53831;52.090;17.026;2022-12-18T05:57:51;79.50;;;19.75;;
66919;SDS011;53831;52.090;17.026;2022-12-18T05:58:52;90.93;;;21.30;;
66919;SDS011;53831;52.090;17.026;2022-12-18T05:59:54;85.75;;;19.65;;
66919;SDS011;53831;52.090;17.026;2022-12-18T06:00:55;86.25;;;21.20;;
66919;SDS011;53831;52.090;17.026;2022-12-18T06:01:55;86.55;;;20.92;;
66919;SDS011;53831;52.090;17.026;2022-12-18T06:02:56;82.28;;;19.35;;
66919;SDS011;53831;52.090;17.026;2022-12-18T06:03:56;88.90;;;21.20;;
66919;SDS011;53831;52.090;17.026;2022-12-18T06:04:57;80.60;;;21.15;;
66919;SDS011;53831;52.090;17.026;2022-12-18T06:05:58;69.65;;;17.63;;
66919;SDS011;53831;52.090;17.026;2022-12-18T06:06:58;78.50;;;19.40;;
66919;SDS011;53831;52.090;17.026;2022-12-18T06:07:59;86.82;;;20.88;;
66919;SDS011;53831;52.090;17.026;2022-12-18T06:08:59;95.05;;;20.05;;
66919;SDS011;53831;52.090;17.026;2022-12-18T06:10:01;120.80;;;26.92;;
66919;SDS011;53831;52.090;17.026;2022-12-18T06:11:02;129.20;;;26.83;;
66919;SDS011;53831;52.090;17.026;2022-12-18T06:12:02;119.50;;;25.08;;
66919;SDS011;53831;52.090;17.026;2022-12-18T06:13:03;82.03;;;18.55;;
66919;SDS011;53831;52.090;17.026;2022-12-18T06:14:05;70.28;;;16.17;;
66919;SDS011;53831;52.090;17.026;2022-12-18T06:15:06;95.22;;;20.58;;
66919;SDS011;53831;52.090;17.026;2022-12-18T06:17:08;87.73;;;18.93;;
66919;SDS011;53831;52.090;17.026;2022-12-18T06:18:08;80.57;;;18.85;;
66919;SDS011;53831;52.090;17.026;2022-12-18T06:19:12;81.55;;;20.23;;
66919;SDS011;53831;52.090;17.026;2022-12-18T06:20:15;81.60;;;21.17;;
66919;SDS011;53831;52.090;17.026;2022-12-18T06:21:15;90.68;;;20.80;;
66919;SDS011;53831;52.090;17.026;2022-12-18T06:22:16;100.97;;;23.83;;
66919;SDS011;53831;52.090;17.026;2022-12-18T06:23:17;87.57;;;20.10;;
66919;SDS011;53831;52.090;17.026;2022-12-18T06:24:17;75.57;;;21.33;;
66919;SDS011;53831;52.090;17.026;2022-12-18T06:25:18;79.80;;;19.75;;
66919;SDS011;53831;52.090;17.026;2022-12-18T06:26:18;61.63;;;15.13;;
66919;SDS011;53831;52.090;17.026;2022-12-18T06:27:19;85.40;;;19.65;;
66919;SDS011;53831;52.090;17.026;2022-12-18T06:28:20;69.82;;;17.63;;
66919;SDS011;53831;52.090;17.026;2022-12-18T06:29:21;64.32;;;17.10;;
66919;SDS011;53831;52.090;17.026;2022-12-18T06:30:22;73.75;;;18.38;;
66919;SDS011;53831;52.090;17.026;2022-12-18T06:31:22;75.22;;;17.85;;
66919;SDS011;53831;52.090;17.026;2022-12-18T06:32:23;73.15;;;17.88;;
66919;SDS011;53831;52.090;17.026;2022-12-18T06:33:26;65.95;;;17.65;;
66919;SDS011;53831;52.090;17.026;2022-12-18T06:34:28;65.28;;;16.30;;
66919;SDS011;53831;52.090;17.026;2022-12-18T06:35:31;60.70;;;14.25;;
66919;SDS011;53831;52.090;17.026;2022-12-18T06:36:32;71.90;;;16.52;;
66919;SDS011;53831;52.090;17.026;2022-12-18T06:37:33;70.20;;;17.55;;
66919;SDS011;53831;52.090;17.026;2022-12-18T06:38:34;82.32;;;18.10;;
66919;SDS011;53831;52.090;17.026;2022-12-18T06:39:35;77.05;;;19.00;;
66919;SDS011;53831;52.090;17.026;2022-12-18T06:40:37;81.25;;;17.88;;
66919;SDS011;53831;52.090;17.026;2022-12-18T06:41:38;89.07;;;20.67;;
66919;SDS011;53831;52.090;17.026;2022-12-18T06:42:39;102.47;;;21.33;;
66919;SDS011;53831;52.090;17.026;2022-12-18T06:43:40;99.25;;;22.80;;